Time,TemperatureF,DewpointF,PressureIn,WindDirection,WindDirectionDegrees,WindSpeedMPH,WindSpeedGustMPH,Humidity,HourlyPrecipIn,Conditions,Clouds,dailyrainin,SoftwareType,DateUTC
2013-09-19 00:03:00,69.1,68.2,28.81,SE,135,5.8,5.8,97,0.00,RA,,0.00,WeatherDisplay:10.37,2013-09-19 05:03:00,
2013-09-19 00:08:00,69.1,68.2,28.81,SE,135,5.8,5.8,97,0.00,RA,,0.00,WeatherDisplay:10.37,2013-09-19 05:08:00,
2013-09-19 00:13:00,69.1,68.2,28.80,SE,135,8.1,8.1,97,0.00,CLR,,0.00,WeatherDisplay:10.37,2013-09-19 05:13:00,
2013-09-19 00:18:00,69.1,68.5,28.81,SE,135,0.0,0.0,98,0.00,CLR,,0.00,WeatherDisplay:10.37,2013-09-19 05:18:00,
2013-09-19 00:23:00,68.9,68.3,28.80,SE,135,0.0,0.0,98,0.00,CLR,,0.00,WeatherDisplay:10.37,2013-09-19 05:23:00,
2013-09-19 00:28:00,68.9,68.3,28.80,SSE,158,0.0,0.0,98,0.00,CLR,,0.00,WeatherDisplay:10.37,2013-09-19 05:28:00,
2013-09-19 00:33:00,68.9,68.3,28.80,SE,135,0.0,0.0,98,0.00,CLR,,0.00,WeatherDisplay:10.37,2013-09-19 05:33:00,
2013-09-19 00:38:00,69.1,68.5,28.80,SE,135,5.8,5.8,98,0.00,CLR,,0.00,WeatherDisplay:10.37,2013-09-19 05:38:00,
2013-09-19 00:43:00,68.9,68.3,28.80,South,180,5.8,5.8,98,0.00,CLR,,0.00,WeatherDisplay:10.37,2013-09-19 05:43:00,
2013-09-19 00:48:00,68.9,68.3,28.80,SE,135,5.8,5.8,98,0.00,CLR,,0.00,WeatherDisplay:10.37,2013-09-19 05:48:00,
2013-09-19 00:53:00,68.7,68.1,28.80,SE,135,5.8,5.8,98,0.00,CLR,,0.00,WeatherDisplay:10.37,2013-09-19 05:53:00,
2013-09-19 00:58:00,68.9,68.6,28.80,South,180,4.6,4.6,99,0.00,CLR,,0.00,WeatherDisplay:10.37,2013-09-19 05:58:00,
2013-09-19 01:03:00,68.9,68.6,28.80,SE,135,4.6,4.6,99,0.00,CLR,,0.00,WeatherDisplay:10.37,2013-09-19 06:03:00,
2013-09-19 01:08:00,68.9,68.6,28.81,SE,135,4.6,4.6,99,0.00,CLR,,0.00,WeatherDisplay:10.37,2013-09-19 06:08:00,
2013-09-19 01:13:00,69.1,68.5,28.81,South,180,3.5,3.5,98,0.00,CLR,,0.00,WeatherDisplay:10.37,2013-09-19 06:13:00,
2013-09-19 01:18:00,68.9,68.3,28.81,East,90,2.3,0.0,98,0.00,CLR,,0.00,WeatherDisplay:10.37,2013-09-19 06:18:00,
2013-09-19 01:23:00,68.9,68.6,28.81,SE,135,3.5,0.0,99,0.00,CLR,,0.00,WeatherDisplay:10.37,2013-09-19 06:23:00,
2013-09-19 01:28:00,68.7,68.4,28.81,South,180,0.0,0.0,99,0.00,CLR,,0.00,WeatherDisplay:10.37,2013-09-19 06:28:00,
2013-09-19 01:33:00,68.7,68.4,28.81,SE,135,0.0,0.0,99,0.00,CLR,,0.00,WeatherDisplay:10.37,2013-09-19 06:33:00,
2013-09-19 01:38:00,68.5,68.2,28.81,SE,135,0.0,0.0,99,0.00,CLR,,0.00,WeatherDisplay:10.37,2013-09-19 06:38:00,
2013-09-19 01:43:00,68.5,68.2,28.81,SE,135,0.0,0.0,99,0.00,CLR,,0.00,WeatherDisplay:10.37,2013-09-19 06:43:00,
2013-09-19 01:48:00,68.7,68.4,28.81,SE,135,0.0,0.0,99,0.00,CLR,,0.00,WeatherDisplay:10.37,2013-09-19 06:48:00,
2013-09-19 01:53:00,68.7,68.4,28.81,SE,135,3.5,3.5,99,0.00,CLR,,0.00,WeatherDisplay:10.37,2013-09-19 06:53:00,
2013-09-19 01:58:00,69.1,68.8,28.82,SE,135,6.9,6.9,99,0.00,CLR,,0.00,WeatherDisplay:10.37,2013-09-19 06:58:00,
2013-09-19 02:03:00,69.1,68.8,28.81,SSE,158,5.8,5.8,99,0.00,CLR,,0.00,WeatherDisplay:10.37,2013-09-19 07:03:00,
2013-09-19 02:08:00,69.3,69.0,28.81,SE,135,5.8,5.8,99,0.00,CLR,,0.00,WeatherDisplay:10.37,2013-09-19 07:08:00,
2013-09-19 02:13:00,69.3,69.0,28.82,SE,135,5.8,5.8,99,0.00,CLR,,0.00,WeatherDisplay:10.37,2013-09-19 07:13:00,
2013-09-19 02:18:00,69.3,69.0,28.82,SE,135,4.6,4.6,99,0.00,CLR,,0.00,WeatherDisplay:10.37,2013-09-19 07:18:00,
2013-09-19 02:23:00,69.1,68.8,28.82,SE,135,3.5,0.0,99,0.00,CLR,,0.00,WeatherDisplay:10.37,2013-09-19 07:23:00,
2013-09-19 02:28:00,68.9,68.6,28.82,East,90,2.3,0.0,99,0.00,CLR,,0.00,WeatherDisplay:10.37,2013-09-19 07:28:00,
2013-09-19 02:33:00,68.9,68.6,28.82,NE,45,1.1,0.0,99,0.00,CLR,,0.00,WeatherDisplay:10.37,2013-09-19 07:33:00,
2013-09-19 02:38:00,68.7,68.4,28.82,SE,135,1.1,0.0,99,0.00,CLR,,0.00,WeatherDisplay:10.37,2013-09-19 07:38:00,
2013-09-19 02:43:00,68.7,68.4,28.82,East,90,0.0,0.0,99,0.00,CLR,,0.00,WeatherDisplay:10.37,2013-09-19 07:43:00,
2013-09-19 02:48:00,68.7,68.4,28.82,SE,135,0.0,0.0,99,0.00,CLR,,0.00,WeatherDisplay:10.37,2013-09-19 07:48:00,
2013-09-19 02:53:00,68.7,68.4,28.82,NE,45,1.1,1.1,99,0.00,CLR,,0.00,WeatherDisplay:10.37,2013-09-19 07:53:00,
2013-09-19 02:58:00,68.7,68.4,28.81,SE,135,2.2,0.0,99,0.00,CLR,,0.00,WeatherDisplay:10.37,2013-09-19 07:58:00,
2013-09-19 03:03:00,68.7,68.4,28.81,North,0,0.0,0.0,99,0.00,CLR,,0.00,WeatherDisplay:10.37,2013-09-19 08:03:00,
2013-09-19 03:08:00,68.5,68.2,28.80,NE,45,0.0,0.0,99,0.00,CLR,,0.00,WeatherDisplay:10.37,2013-09-19 08:08:00,
2013-09-19 03:13:00,68.5,68.2,28.81,SE,135,2.3,0.0,99,0.00,CLR,,0.00,WeatherDisplay:10.37,2013-09-19 08:13:00,
2013-09-19 03:18:00,68.5,68.2,28.81,NE,45,0.0,0.0,99,0.00,CLR,,0.00,WeatherDisplay:10.37,2013-09-19 08:18:00,
2013-09-19 03:23:00,68.4,68.1,28.81,ENE,68,1.6,0.0,99,0.00,CLR,,0.00,WeatherDisplay:10.37,2013-09-19 08:23:00,
2013-09-19 03:28:00,68.4,68.1,28.80,East,90,1.1,2.2,99,0.00,CLR,,0.00,WeatherDisplay:10.37,2013-09-19 08:28:00,
2013-09-19 03:33:00,68.2,67.9,28.80,East,90,5.8,5.8,99,0.00,CLR,,0.00,WeatherDisplay:10.37,2013-09-19 08:33:00,
2013-09-19 03:38:00,68.4,68.1,28.80,NE,45,3.5,0.0,99,0.00,CLR,,0.00,WeatherDisplay:10.37,2013-09-19 08:38:00,
2013-09-19 03:43:00,68.2,67.9,28.79,NE,45,3.5,3.5,99,0.00,CLR,,0.00,WeatherDisplay:10.37,2013-09-19 08:43:00,
2013-09-19 03:48:00,68.2,67.9,28.79,North,0,3.5,3.5,99,0.00,CLR,,0.00,WeatherDisplay:10.37,2013-09-19 08:48:00,
2013-09-19 03:53:00,68.4,68.1,28.79,SE,135,3.5,3.5,99,0.00,CLR,,0.00,WeatherDisplay:10.37,2013-09-19 08:53:00,
2013-09-19 03:58:00,68.4,68.1,28.78,East,90,5.8,5.8,99,0.00,CLR,,0.00,WeatherDisplay:10.37,2013-09-19 08:58:00,
2013-09-19 04:03:00,68.4,68.1,28.78,NE,45,2.3,0.0,99,0.00,CLR,,0.00,WeatherDisplay:10.37,2013-09-19 09:03:00,
2013-09-19 04:08:00,68.2,67.9,28.78,East,90,3.5,3.5,99,0.00,CLR,,0.00,WeatherDisplay:10.37,2013-09-19 09:08:00,
2013-09-19 04:13:00,68.2,67.9,28.78,East,90,3.5,3.5,99,0.00,CLR,,0.00,WeatherDisplay:10.37,2013-09-19 09:13:00,
2013-09-19 04:18:00,68.0,67.7,28.78,SE,135,0.0,0.0,99,0.00,CLR,,0.00,WeatherDisplay:10.37,2013-09-19 09:18:00,
2013-09-19 04:23:00,68.0,67.7,28.77,SE,135,6.9,6.9,99,0.00,CLR,,0.00,WeatherDisplay:10.37,2013-09-19 09:23:00,
2013-09-19 04:28:00,67.8,67.5,28.77,SE,135,5.8,5.8,99,0.00,CLR,,0.00,WeatherDisplay:10.37,2013-09-19 09:28:00,
2013-09-19 04:33:00,67.8,67.5,28.77,SE,135,5.8,5.8,99,0.00,CLR,,0.00,WeatherDisplay:10.37,2013-09-19 09:33:00,
2013-09-19 04:38:00,68.0,67.7,28.77,East,90,5.8,5.8,99,0.00,CLR,,0.00,WeatherDisplay:10.37,2013-09-19 09:38:00,
2013-09-19 04:43:00,68.0,67.7,28.77,SE,135,4.6,4.6,99,0.00,CLR,,0.00,WeatherDisplay:10.37,2013-09-19 09:43:00,
2013-09-19 04:48:00,68.0,67.7,28.77,SE,135,5.8,5.8,99,0.00,CLR,,0.00,WeatherDisplay:10.37,2013-09-19 09:48:00,
2013-09-19 04:53:00,68.0,67.7,28.77,SE,135,5.8,5.8,99,0.00,CLR,,0.00,WeatherDisplay:10.37,2013-09-19 09:53:00,
2013-09-19 04:58:00,68.0,67.7,28.78,SE,135,5.8,5.8,99,0.00,CLR,,0.00,WeatherDisplay:10.37,2013-09-19 09:58:00,
2013-09-19 05:03:00,68.2,67.9,28.78,SE,135,8.1,8.1,99,0.00,CLR,,0.00,WeatherDisplay:10.37,2013-09-19 10:03:00,
2013-09-19 05:08:00,68.2,67.9,28.77,SE,135,8.1,0.0,99,0.00,CLR,,0.00,WeatherDisplay:10.37,2013-09-19 10:08:00,
2013-09-19 05:13:00,68.4,68.1,28.77,SE,135,0.0,0.0,99,0.00,CLR,,0.00,WeatherDisplay:10.37,2013-09-19 10:13:00,
2013-09-19 05:18:00,68.5,68.2,28.77,SSE,158,8.1,8.1,99,0.00,CLR,,0.00,WeatherDisplay:10.37,2013-09-19 10:18:00,
2013-09-19 05:23:00,68.5,68.2,28.77,SE,135,8.1,8.1,99,0.00,CLR,,0.00,WeatherDisplay:10.37,2013-09-19 10:23:00,
2013-09-19 05:28:00,68.5,68.2,28.76,SE,135,6.9,6.9,99,0.00,CLR,,0.00,WeatherDisplay:10.37,2013-09-19 10:28:00,
2013-09-19 05:33:00,68.5,68.2,28.77,SE,135,8.1,0.0,99,0.00,CLR,,0.00,WeatherDisplay:10.37,2013-09-19 10:33:00,
2013-09-19 05:38:00,68.5,68.2,28.78,SE,135,9.2,9.2,99,0.00,CLR,,0.00,WeatherDisplay:10.37,2013-09-19 10:38:00,
2013-09-19 05:43:00,68.5,68.2,28.78,SE,135,10.4,10.4,99,0.00,CLR,,0.00,WeatherDisplay:10.37,2013-09-19 10:43:00,
2013-09-19 05:48:00,68.7,68.4,28.78,SE,135,8.1,8.1,99,0.00,CLR,,0.00,WeatherDisplay:10.37,2013-09-19 10:48:00,
2013-09-19 05:53:00,68.7,68.4,28.78,SE,135,0.0,0.0,99,0.00,CLR,,0.00,WeatherDisplay:10.37,2013-09-19 10:53:00,
2013-09-19 05:59:00,68.7,68.4,28.78,SSE,158,0.0,0.0,99,0.00,CLR,,0.00,WeatherDisplay:10.37,2013-09-19 10:59:00,
2013-09-19 06:04:00,68.7,68.4,28.78,SE,135,0.0,0.0,99,0.00,CLR,,0.00,WeatherDisplay:10.37,2013-09-19 11:04:00,
2013-09-19 06:09:00,68.7,68.4,28.78,East,90,4.6,4.6,99,0.00,CLR,,0.00,WeatherDisplay:10.37,2013-09-19 11:09:00,
2013-09-19 06:14:00,68.7,68.4,28.78,SE,135,2.3,0.0,99,0.00,CLR,,0.00,WeatherDisplay:10.37,2013-09-19 11:14:00,
2013-09-19 06:19:00,68.7,68.4,28.78,East,90,1.1,0.0,99,0.00,CLR,,0.00,WeatherDisplay:10.37,2013-09-19 11:19:00,
2013-09-19 06:24:00,68.5,68.2,28.78,SE,135,4.6,4.6,99,0.00,CLR,,0.00,WeatherDisplay:10.37,2013-09-19 11:24:00,
2013-09-19 06:29:00,68.5,68.2,28.79,South,180,0.0,0.0,99,0.00,CLR,,0.00,WeatherDisplay:10.37,2013-09-19 11:29:00,
2013-09-19 06:34:00,68.5,68.2,28.79,SE,135,0.0,0.0,99,0.00,CLR,,0.00,WeatherDisplay:10.37,2013-09-19 11:34:00,
2013-09-19 06:39:00,68.5,68.2,28.79,SE,135,0.0,0.0,99,0.00,CLR,,0.00,WeatherDisplay:10.37,2013-09-19 11:39:00,
2013-09-19 06:44:00,68.7,68.4,28.79,SE,135,0.0,0.0,99,0.00,CLR,,0.00,WeatherDisplay:10.37,2013-09-19 11:44:00,
2013-09-19 06:49:00,68.5,68.2,28.79,East,90,0.0,0.0,99,0.00,CLR,,0.00,WeatherDisplay:10.37,2013-09-19 11:49:00,
2013-09-19 06:54:00,68.5,68.2,28.78,SE,135,5.8,5.8,99,0.00,CLR,,0.00,WeatherDisplay:10.37,2013-09-19 11:54:00,
2013-09-19 06:59:00,68.5,68.2,28.79,SE,135,8.1,8.1,99,0.00,CLR,,0.00,WeatherDisplay:10.37,2013-09-19 11:59:00,
2013-09-19 07:04:00,68.5,68.2,28.79,SE,135,6.9,6.9,99,0.00,CLR,,0.00,WeatherDisplay:10.37,2013-09-19 12:04:00,
2013-09-19 07:09:00,68.5,68.2,28.79,SE,135,6.9,0.0,99,0.00,CLR,,0.00,WeatherDisplay:10.37,2013-09-19 12:09:00,
2013-09-19 07:14:00,68.5,68.2,28.79,SE,135,5.8,5.8,99,0.00,CLR,,0.00,WeatherDisplay:10.37,2013-09-19 12:14:00,
2013-09-19 07:19:00,68.5,68.2,28.79,SE,135,0.0,0.0,99,0.00,CLR,,0.00,WeatherDisplay:10.37,2013-09-19 12:19:00,
2013-09-19 07:24:00,68.7,68.4,28.79,SE,135,0.0,0.0,99,0.00,CLR,,0.00,WeatherDisplay:10.37,2013-09-19 12:24:00,
2013-09-19 07:29:00,68.7,68.4,28.79,South,180,0.0,0.0,99,0.00,CLR,,0.00,WeatherDisplay:10.37,2013-09-19 12:29:00,
2013-09-19 07:34:00,68.7,68.4,28.79,SE,135,0.0,0.0,99,0.00,CLR,,0.00,WeatherDisplay:10.37,2013-09-19 12:34:00,
2013-09-19 07:39:00,68.7,68.4,28.78,SE,135,0.0,0.0,99,0.00,CLR,,0.00,WeatherDisplay:10.37,2013-09-19 12:39:00,
2013-09-19 07:44:00,68.7,68.4,28.78,East,90,8.1,8.1,99,0.00,CLR,,0.00,WeatherDisplay:10.37,2013-09-19 12:44:00,
2013-09-19 07:49:00,68.9,68.6,28.78,SE,135,4.6,4.6,99,0.00,CLR,,0.00,WeatherDisplay:10.37,2013-09-19 12:49:00,
2013-09-19 07:54:00,69.3,69.0,28.78,SE,135,8.1,8.1,99,0.00,CLR,,0.00,WeatherDisplay:10.37,2013-09-19 12:54:00,
2013-09-19 07:59:00,69.4,69.1,28.78,East,90,8.1,8.1,99,0.00,CLR,,0.00,WeatherDisplay:10.37,2013-09-19 12:59:00,
2013-09-19 08:04:00,69.4,69.1,28.78,SE,135,6.9,6.9,99,0.00,CLR,,0.00,WeatherDisplay:10.37,2013-09-19 13:04:00,
2013-09-19 08:09:00,70.0,69.4,28.78,SE,135,8.1,8.1,98,0.00,CLR,,0.00,WeatherDisplay:10.37,2013-09-19 13:09:00,
2013-09-19 08:14:00,70.2,69.3,28.78,SE,135,8.1,8.1,97,0.00,CLR,,0.00,WeatherDisplay:10.37,2013-09-19 13:14:00,
2013-09-19 08:19:00,70.3,69.7,28.77,SE,135,8.1,8.1,98,0.00,CLR,,0.00,WeatherDisplay:10.37,2013-09-19 13:19:00,
2013-09-19 08:24:00,70.5,69.6,28.77,SE,135,0.0,0.0,97,0.00,CLR,,0.00,WeatherDisplay:10.37,2013-09-19 13:24:00,
2013-09-19 08:29:00,70.7,69.8,28.78,SE,135,6.9,6.9,97,0.00,CLR,,0.00,WeatherDisplay:10.37,2013-09-19 13:29:00,
2013-09-19 08:34:00,70.7,69.8,28.78,SE,135,8.1,8.1,97,0.00,CLR,,0.00,WeatherDisplay:10.37,2013-09-19 13:34:00,
2013-09-19 08:39:00,70.9,70.0,28.77,SSE,158,8.1,8.1,97,0.00,CLR,,0.00,WeatherDisplay:10.37,2013-09-19 13:39:00,
2013-09-19 08:44:00,71.2,70.3,28.77,East,90,8.1,8.1,97,0.00,CLR,,0.00,WeatherDisplay:10.37,2013-09-19 13:44:00,
2013-09-19 08:49:00,71.2,70.3,28.77,SE,135,8.1,8.1,97,0.00,CLR,,0.00,WeatherDisplay:10.37,2013-09-19 13:49:00,
2013-09-19 08:54:00,71.4,70.2,28.77,SE,135,0.0,0.0,96,0.00,CLR,,0.00,WeatherDisplay:10.37,2013-09-19 13:54:00,
2013-09-19 08:59:00,71.6,70.4,28.77,South,180,0.0,0.0,96,0.00,CLR,,0.00,WeatherDisplay:10.37,2013-09-19 13:59:00,
2013-09-19 09:04:00,72.1,70.6,28.76,SE,135,0.0,0.0,95,0.00,CLR,,0.00,WeatherDisplay:10.37,2013-09-19 14:04:00,
2013-09-19 09:09:00,73.0,70.6,28.76,SE,135,0.0,0.0,92,0.00,CLR,,0.00,WeatherDisplay:10.37,2013-09-19 14:09:00,
2013-09-19 09:14:00,73.6,70.8,28.76,SE,135,3.5,0.0,91,0.00,CLR,,0.00,WeatherDisplay:10.37,2013-09-19 14:14:00,
2013-09-19 09:19:00,73.6,70.8,28.76,SE,135,13.8,13.8,91,0.00,CLR,,0.00,WeatherDisplay:10.37,2013-09-19 14:19:00,
2013-09-19 09:24:00,73.8,70.6,28.76,SE,135,12.7,12.7,90,0.00,CLR,,0.00,WeatherDisplay:10.37,2013-09-19 14:24:00,
2013-09-19 09:29:00,73.6,70.5,28.76,SE,135,1.1,0.0,90,0.00,CLR,,0.00,WeatherDisplay:10.37,2013-09-19 14:29:00,
2013-09-19 09:34:00,73.4,70.6,28.76,South,180,13.0,13.0,91,0.00,CLR,,0.00,WeatherDisplay:10.37,2013-09-19 14:34:00,
2013-09-19 09:39:00,73.2,70.8,28.76,SE,135,15.0,15.0,92,0.00,CLR,,0.00,WeatherDisplay:10.37,2013-09-19 14:39:00,
2013-09-19 09:44:00,73.8,71.0,28.76,SE,135,11.5,11.5,91,0.00,CLR,,0.00,WeatherDisplay:10.37,2013-09-19 14:44:00,
2013-09-19 09:49:00,73.9,71.1,28.76,South,180,12.7,12.7,91,0.00,CLR,,0.00,WeatherDisplay:10.37,2013-09-19 14:49:00,
2013-09-19 09:54:00,74.1,71.0,28.75,SE,135,0.0,0.0,90,0.00,CLR,,0.00,WeatherDisplay:10.37,2013-09-19 14:54:00,
2013-09-19 09:59:00,73.9,70.8,28.76,South,180,12.7,12.7,90,0.00,CLR,,0.00,WeatherDisplay:10.37,2013-09-19 14:59:00,
2013-09-19 10:04:00,74.7,71.2,28.76,SSE,158,12.7,12.7,89,0.00,CLR,,0.00,WeatherDisplay:10.37,2013-09-19 15:04:00,
2013-09-19 10:09:00,75.0,71.2,28.76,SE,135,13.7,13.7,88,0.00,CLR,,0.00,WeatherDisplay:10.37,2013-09-19 15:09:00,
2013-09-19 10:14:00,75.4,70.9,28.76,SE,135,15.0,15.0,86,0.00,CLR,,0.00,WeatherDisplay:10.37,2013-09-19 15:14:00,
2013-09-19 10:19:00,75.9,71.1,28.76,South,180,12.7,12.7,85,0.00,CLR,,0.00,WeatherDisplay:10.37,2013-09-19 15:19:00,
2013-09-19 10:24:00,76.5,71.3,28.76,SE,135,9.2,9.2,84,0.00,CLR,,0.00,WeatherDisplay:10.37,2013-09-19 15:24:00,
2013-09-19 10:29:00,77.0,71.4,28.76,SE,135,10.4,10.4,83,0.00,CLR,,0.00,WeatherDisplay:10.37,2013-09-19 15:29:00,
2013-09-19 10:34:00,77.5,71.6,28.75,South,180,10.4,10.4,82,0.00,CLR,,0.00,WeatherDisplay:10.37,2013-09-19 15:34:00,
2013-09-19 10:39:00,77.7,71.4,28.75,SSE,158,12.7,12.7,81,0.00,CLR,,0.00,WeatherDisplay:10.37,2013-09-19 15:39:00,
2013-09-19 10:44:00,77.0,71.4,28.74,SE,135,12.7,12.7,83,0.00,CLR,,0.00,WeatherDisplay:10.37,2013-09-19 15:44:00,
2013-09-19 10:49:00,77.0,71.1,28.75,South,180,13.8,13.8,82,0.00,CLR,,0.00,WeatherDisplay:10.37,2013-09-19 15:49:00,
2013-09-19 10:54:00,76.5,70.9,28.74,South,180,15.0,15.0,83,0.00,CLR,,0.00,WeatherDisplay:10.37,2013-09-19 15:54:00,
2013-09-19 10:59:00,76.5,70.9,28.74,SE,135,13.8,13.8,83,0.00,CLR,,0.00,WeatherDisplay:10.37,2013-09-19 15:59:00,
2013-09-19 11:04:00,76.6,71.4,28.74,SE,135,11.5,11.5,84,0.00,CLR,,0.00,WeatherDisplay:10.37,2013-09-19 16:04:00,
2013-09-19 11:09:00,76.8,71.3,28.74,SE,135,15.0,15.0,83,0.00,CLR,,0.00,WeatherDisplay:10.37,2013-09-19 16:09:00,
2013-09-19 11:14:00,77.4,71.4,28.75,SE,135,13.8,13.8,82,0.00,CLR,,0.00,WeatherDisplay:10.37,2013-09-19 16:14:00,
2013-09-19 11:19:00,77.7,70.7,28.74,SE,135,15.0,15.2,79,0.00,CLR,,0.00,WeatherDisplay:10.37,2013-09-19 16:19:00,
2013-09-19 11:24:00,78.4,71.4,28.75,South,180,15.0,15.0,79,0.00,CLR,,0.00,WeatherDisplay:10.37,2013-09-19 16:24:00,
2013-09-19 11:29:00,79.7,71.5,28.75,SSE,158,14.5,14.5,76,0.00,CLR,,0.00,WeatherDisplay:10.37,2013-09-19 16:29:00,
2013-09-19 11:34:00,79.7,71.1,28.75,South,180,20.7,20.7,75,0.00,CLR,,0.00,WeatherDisplay:10.37,2013-09-19 16:34:00,
2013-09-19 11:39:00,79.7,71.1,28.75,South,180,20.7,20.7,75,0.00,CLR,,0.00,WeatherDisplay:10.37,2013-09-19 16:39:00,
2013-09-19 11:44:00,79.7,71.1,28.75,SE,135,21.9,21.9,75,0.00,CLR,,0.00,WeatherDisplay:10.37,2013-09-19 16:44:00,
2013-09-19 11:49:00,79.2,70.5,28.75,South,180,16.1,16.1,75,0.00,CLR,,0.00,WeatherDisplay:10.37,2013-09-19 16:49:00,
2013-09-19 11:54:00,78.6,70.4,28.75,South,180,19.6,19.6,76,0.00,CLR,,0.00,WeatherDisplay:10.37,2013-09-19 16:54:00,
2013-09-19 11:59:00,78.4,70.6,28.76,SW,225,13.8,13.8,77,0.00,CLR,,0.00,WeatherDisplay:10.37,2013-09-19 16:59:00,
2013-09-19 12:04:00,78.6,70.4,28.77,South,180,16.1,16.1,76,0.00,CLR,,0.00,WeatherDisplay:10.37,2013-09-19 17:04:00,
2013-09-19 12:09:00,78.8,70.6,28.77,South,180,16.1,16.1,76,0.00,CLR,,0.00,WeatherDisplay:10.37,2013-09-19 17:09:00,
2013-09-19 12:14:00,78.8,70.6,28.77,SW,225,18.4,0.0,76,0.00,CLR,,0.00,WeatherDisplay:10.37,2013-09-19 17:14:00,
2013-09-19 12:19:00,78.6,70.4,28.77,South,180,15.0,15.0,76,0.00,CLR,,0.00,WeatherDisplay:10.37,2013-09-19 17:19:00,
2013-09-19 12:24:00,79.0,70.8,28.77,SW,225,15.0,15.0,76,0.00,CLR,,0.00,WeatherDisplay:10.37,2013-09-19 17:24:00,
2013-09-19 12:29:00,78.8,70.6,28.77,South,180,12.7,12.7,76,0.00,CLR,,0.00,WeatherDisplay:10.37,2013-09-19 17:29:00,
2013-09-19 12:34:00,78.8,71.0,28.77,South,180,13.8,13.8,77,0.00,CLR,,0.00,WeatherDisplay:10.37,2013-09-19 17:34:00,
2013-09-19 12:39:00,78.8,71.0,28.77,South,180,10.4,10.4,77,0.00,CLR,,0.00,WeatherDisplay:10.37,2013-09-19 17:39:00,
2013-09-19 12:44:00,78.8,70.6,28.77,South,180,15.0,15.0,76,0.00,CLR,,0.00,WeatherDisplay:10.37,2013-09-19 17:44:00,
2013-09-19 12:49:00,78.6,70.8,28.77,SW,225,10.4,10.4,77,0.00,CLR,,0.00,WeatherDisplay:10.37,2013-09-19 17:49:00,
2013-09-19 12:54:00,78.6,70.8,28.76,South,180,10.4,10.4,77,0.00,CLR,,0.00,WeatherDisplay:10.37,2013-09-19 17:54:00,
2013-09-19 12:59:00,78.6,70.8,28.77,SW,225,10.4,10.4,77,0.00,CLR,,0.00,WeatherDisplay:10.37,2013-09-19 17:59:00,
2013-09-19 13:04:00,78.4,71.0,28.78,South,180,6.9,6.9,78,0.00,CLR,,0.00,WeatherDisplay:10.37,2013-09-19 18:04:00,
2013-09-19 13:09:00,78.1,70.7,28.78,South,180,6.9,6.9,78,0.00,CLR,,0.00,WeatherDisplay:10.37,2013-09-19 18:09:00,
2013-09-19 13:14:00,78.1,70.7,28.78,South,180,3.5,3.5,78,0.00,CLR,,0.00,WeatherDisplay:10.37,2013-09-19 18:14:00,
2013-09-19 13:19:00,79.0,71.2,28.78,SW,225,1.1,1.1,77,0.00,CLR,,0.00,WeatherDisplay:10.37,2013-09-19 18:19:00,
2013-09-19 13:24:00,77.0,66.9,28.80,NW,315,19.6,19.6,71,0.00,CLR,,0.00,WeatherDisplay:10.37,2013-09-19 18:24:00,
2013-09-19 13:29:00,72.0,65.8,28.79,NW,315,15.0,15.0,81,0.06,RA,,0.07,WeatherDisplay:10.37,2013-09-19 18:29:00,
2013-09-19 13:34:00,68.5,65.8,28.80,South,180,9.2,9.2,91,0.17,RA,,0.17,WeatherDisplay:10.37,2013-09-19 18:34:00,
2013-09-19 13:39:00,67.8,66.0,28.80,SW,225,17.3,17.3,94,0.17,RA,,0.17,WeatherDisplay:10.37,2013-09-19 18:39:00,
2013-09-19 13:44:00,67.6,66.2,28.79,North,0,3.5,0.0,95,0.17,,,0.18,WeatherDisplay:10.37,2013-09-19 18:44:00,
2013-09-19 13:49:00,68.4,67.2,28.79,South,180,3.5,3.5,96,0.26,RA,,0.27,WeatherDisplay:10.37,2013-09-19 18:49:00,
2013-09-19 13:54:00,67.6,66.8,28.78,SE,135,10.4,10.4,97,0.32,RA,,0.32,WeatherDisplay:10.37,2013-09-19 18:54:00,
2013-09-19 13:59:00,67.8,67.2,28.76,NW,315,2.3,0.0,98,0.33,RA,,0.33,WeatherDisplay:10.37,2013-09-19 18:59:00,
2013-09-19 14:04:00,67.6,66.8,28.76,NW,315,3.5,0.0,97,0.33,RA,,0.33,WeatherDisplay:10.37,2013-09-19 19:04:00,
2013-09-19 14:09:00,67.8,67.2,28.76,NW,315,2.3,0.0,98,0.33,,,0.33,WeatherDisplay:10.37,2013-09-19 19:09:00,
2013-09-19 14:14:00,68.7,67.5,28.76,East,90,2.3,2.3,96,0.33,CLR,,0.33,WeatherDisplay:10.37,2013-09-19 19:14:00,
2013-09-19 14:19:00,69.1,67.3,28.76,SE,135,3.5,0.0,94,0.33,CLR,,0.33,WeatherDisplay:10.37,2013-09-19 19:19:00,
2013-09-19 14:24:00,69.8,67.4,28.75,NE,45,3.5,3.5,92,0.33,CLR,,0.33,WeatherDisplay:10.37,2013-09-19 19:24:00,
2013-09-19 14:29:00,70.0,67.5,28.73,ESE,112,3.5,3.5,92,0.27,CLR,,0.33,WeatherDisplay:10.37,2013-09-19 19:29:00,
2013-09-19 14:34:00,69.4,67.3,28.74,SE,135,7.6,7.6,93,0.17,CLR,,0.33,WeatherDisplay:10.37,2013-09-19 19:34:00,
2013-09-19 14:39:00,68.9,67.4,28.74,SE,135,9.2,9.2,95,0.17,CLR,,0.33,WeatherDisplay:10.37,2013-09-19 19:39:00,
2013-09-19 14:44:00,69.1,67.6,28.75,SE,135,6.9,6.9,95,0.17,CLR,,0.33,WeatherDisplay:10.37,2013-09-19 19:44:00,
2013-09-19 14:49:00,69.6,67.8,28.77,SE,135,8.1,8.1,94,0.07,CLR,,0.33,WeatherDisplay:10.37,2013-09-19 19:49:00,
2013-09-19 14:54:00,70.7,68.6,28.76,South,180,5.8,5.8,93,0.01,CLR,,0.33,WeatherDisplay:10.37,2013-09-19 19:54:00,
2013-09-19 14:59:00,70.7,67.9,28.76,South,180,8.1,8.1,91,0.00,CLR,,0.33,WeatherDisplay:10.37,2013-09-19 19:59:00,
2013-09-19 15:04:00,70.0,67.5,28.76,SE,135,10.4,10.4,92,0.00,CLR,,0.33,WeatherDisplay:10.37,2013-09-19 20:04:00,
2013-09-19 15:09:00,70.0,67.5,28.76,SE,135,9.2,9.2,92,0.00,CLR,,0.33,WeatherDisplay:10.37,2013-09-19 20:09:00,
2013-09-19 15:14:00,70.2,67.7,28.76,SSE,158,8.1,8.1,92,0.00,CLR,,0.33,WeatherDisplay:10.37,2013-09-19 20:14:00,
2013-09-19 15:19:00,70.3,67.6,28.76,SE,135,9.2,9.2,91,0.00,CLR,,0.33,WeatherDisplay:10.37,2013-09-19 20:19:00,
2013-09-19 15:24:00,71.1,67.7,28.76,South,180,6.9,6.9,89,0.00,CLR,,0.33,WeatherDisplay:10.37,2013-09-19 20:24:00,
2013-09-19 15:29:00,71.6,68.2,28.76,South,180,5.8,5.8,89,0.00,CLR,,0.33,WeatherDisplay:10.37,2013-09-19 20:29:00,
2013-09-19 15:34:00,71.4,67.7,28.76,South,180,4.6,4.6,88,0.00,CLR,,0.33,WeatherDisplay:10.37,2013-09-19 20:34:00,
2013-09-19 15:40:00,71.4,68.0,28.77,South,178,2.0,4.0,89,0.00,CLR,,0.33,WeatherDisplay:10.37,2013-09-19 20:40:00,
2013-09-19 15:45:00,71.6,67.5,28.76,South,180,5.8,5.8,87,0.00,CLR,,0.33,WeatherDisplay:10.37,2013-09-19 20:45:00,
2013-09-19 15:50:00,71.8,67.0,28.76,South,180,6.9,6.9,85,0.00,CLR,,0.33,WeatherDisplay:10.37,2013-09-19 20:50:00,
2013-09-19 15:55:00,71.8,67.0,28.76,SW,225,8.1,8.1,85,0.00,CLR,,0.33,WeatherDisplay:10.37,2013-09-19 20:55:00,
2013-09-19 16:00:00,71.8,67.4,28.76,South,180,8.1,8.1,86,0.00,CLR,,0.33,WeatherDisplay:10.37,2013-09-19 21:00:00,
2013-09-19 16:05:00,71.8,67.4,28.76,South,180,8.1,8.1,86,0.00,CLR,,0.33,WeatherDisplay:10.37,2013-09-19 21:05:00,
2013-09-19 16:10:00,71.8,67.4,28.76,SE,135,3.5,3.5,86,0.00,CLR,,0.33,WeatherDisplay:10.37,2013-09-19 21:10:00,
2013-09-19 16:15:00,72.0,67.5,28.75,South,180,3.5,3.5,86,0.00,CLR,,0.33,WeatherDisplay:10.37,2013-09-19 21:15:00,
2013-09-19 16:20:00,72.5,68.1,28.75,North,0,0.0,0.0,86,0.00,CLR,,0.33,WeatherDisplay:10.37,2013-09-19 21:20:00,
2013-09-19 16:25:00,72.7,67.9,28.75,NW,315,1.1,0.0,85,0.00,CLR,,0.33,WeatherDisplay:10.37,2013-09-19 21:25:00,
2013-09-19 16:30:00,72.3,67.6,28.74,NE,45,3.5,3.5,85,0.00,CLR,,0.33,WeatherDisplay:10.37,2013-09-19 21:30:00,
2013-09-19 16:35:00,72.7,68.2,28.74,NW,315,2.3,0.0,86,0.00,CLR,,0.33,WeatherDisplay:10.37,2013-09-19 21:35:00,
2013-09-19 16:40:00,73.4,68.6,28.73,NW,315,3.5,0.0,85,0.00,CLR,,0.33,WeatherDisplay:10.37,2013-09-19 21:40:00,
2013-09-19 16:45:00,73.6,68.4,28.73,NW,315,6.9,6.9,84,0.00,CLR,,0.33,WeatherDisplay:10.37,2013-09-19 21:45:00,
2013-09-19 16:50:00,73.4,67.9,28.74,WNW,292,3.5,3.5,83,0.00,CLR,,0.33,WeatherDisplay:10.37,2013-09-19 21:50:00,
2013-09-19 16:55:00,72.5,66.7,28.74,NW,315,6.9,6.9,82,0.00,CLR,,0.33,WeatherDisplay:10.37,2013-09-19 21:55:00,
2013-09-19 17:00:00,72.1,66.7,28.73,NW,315,3.5,3.5,83,0.00,CLR,,0.33,WeatherDisplay:10.37,2013-09-19 22:00:00,
2013-09-19 17:05:00,71.8,66.7,28.74,NW,315,4.6,0.0,84,0.00,CLR,,0.33,WeatherDisplay:10.37,2013-09-19 22:05:00,
2013-09-19 17:10:00,71.8,67.0,28.74,West,270,3.5,3.5,85,0.00,CLR,,0.33,WeatherDisplay:10.37,2013-09-19 22:10:00,
2013-09-19 17:15:00,71.8,67.4,28.74,NW,315,1.1,0.0,86,0.00,CLR,,0.33,WeatherDisplay:10.37,2013-09-19 22:15:00,
2013-09-19 17:20:00,71.8,67.4,28.75,NW,315,1.1,0.0,86,0.00,CLR,,0.33,WeatherDisplay:10.37,2013-09-19 22:20:00,
2013-09-19 17:25:00,71.8,67.7,28.75,SW,225,1.1,0.0,87,0.00,CLR,,0.33,WeatherDisplay:10.37,2013-09-19 22:25:00,
2013-09-19 17:30:00,71.6,67.5,28.75,South,180,0.0,0.0,87,0.00,CLR,,0.33,WeatherDisplay:10.37,2013-09-19 22:30:00,
2013-09-19 17:35:00,71.4,67.3,28.75,NW,315,1.1,0.0,87,0.00,CLR,,0.33,WeatherDisplay:10.37,2013-09-19 22:35:00,
2013-09-19 17:40:00,71.4,67.3,28.76,SW,225,1.1,0.0,87,0.00,CLR,,0.33,WeatherDisplay:10.37,2013-09-19 22:40:00,
2013-09-19 17:45:00,71.4,67.3,28.75,North,0,1.1,0.0,87,0.00,CLR,,0.33,WeatherDisplay:10.37,2013-09-19 22:45:00,
2013-09-19 17:50:00,71.2,67.5,28.75,NW,315,1.1,0.0,88,0.00,CLR,,0.33,WeatherDisplay:10.37,2013-09-19 22:50:00,
2013-09-19 17:55:00,72.3,68.2,28.75,North,0,1.1,0.0,87,0.00,CLR,,0.33,WeatherDisplay:10.37,2013-09-19 22:55:00,
2013-09-19 18:00:00,73.9,68.8,28.75,East,90,1.1,0.0,84,0.00,CLR,,0.33,WeatherDisplay:10.37,2013-09-19 23:00:00,
2013-09-19 18:05:00,74.7,68.4,28.74,NW,315,1.1,0.0,81,0.00,CLR,,0.33,WeatherDisplay:10.37,2013-09-19 23:05:00,
2013-09-19 18:10:00,74.1,67.6,28.74,East,90,1.1,0.0,80,0.00,CLR,,0.33,WeatherDisplay:10.37,2013-09-19 23:10:00,
2013-09-19 18:15:00,72.5,66.7,28.75,NW,315,4.6,4.6,82,0.00,CLR,,0.33,WeatherDisplay:10.37,2013-09-19 23:15:00,
2013-09-19 18:20:00,71.6,66.5,28.75,North,0,3.5,3.5,84,0.00,CLR,,0.33,WeatherDisplay:10.37,2013-09-19 23:20:00,
2013-09-19 18:25:00,71.4,67.3,28.75,West,270,2.3,0.0,87,0.00,CLR,,0.33,WeatherDisplay:10.37,2013-09-19 23:25:00,
2013-09-19 18:30:00,73.2,68.1,28.74,SW,225,1.1,0.0,84,0.00,CLR,,0.33,WeatherDisplay:10.37,2013-09-19 23:30:00,
2013-09-19 18:35:00,74.3,68.1,28.74,SW,225,1.1,0.0,81,0.00,CLR,,0.33,WeatherDisplay:10.37,2013-09-19 23:35:00,
2013-09-19 18:40:00,74.5,67.9,28.74,South,180,1.1,0.0,80,0.00,CLR,,0.33,WeatherDisplay:10.37,2013-09-19 23:40:00,
2013-09-19 18:45:00,73.0,67.2,28.74,South,180,1.1,0.0,82,0.00,CLR,,0.33,WeatherDisplay:10.37,2013-09-19 23:45:00,
2013-09-19 18:50:00,72.0,66.9,28.75,SW,225,0.0,0.0,84,0.00,CLR,,0.33,WeatherDisplay:10.37,2013-09-19 23:50:00,
2013-09-19 18:55:00,71.1,66.7,28.75,South,180,1.1,1.1,86,0.00,CLR,,0.33,WeatherDisplay:10.37,2013-09-19 23:55:00,
2013-09-19 19:00:00,70.5,67.1,28.76,South,180,2.3,2.3,89,0.00,CLR,,0.33,WeatherDisplay:10.37,2013-09-20 00:00:00,
2013-09-19 19:05:00,70.2,66.8,28.76,South,180,4.6,4.6,89,0.00,CLR,,0.33,WeatherDisplay:10.37,2013-09-20 00:05:00,
2013-09-19 19:10:00,70.0,66.6,28.76,South,180,3.5,3.5,89,0.00,CLR,,0.33,WeatherDisplay:10.37,2013-09-20 00:10:00,
2013-09-19 19:15:00,69.8,66.7,28.76,South,180,3.5,0.0,90,0.00,CLR,,0.33,WeatherDisplay:10.37,2013-09-20 00:15:00,
2013-09-19 19:20:00,69.8,66.4,28.75,South,180,0.0,0.0,89,0.00,CLR,,0.33,WeatherDisplay:10.37,2013-09-20 00:20:00,
2013-09-19 19:25:00,69.8,66.7,28.76,South,180,0.0,0.0,90,0.00,CLR,,0.33,WeatherDisplay:10.37,2013-09-20 00:25:00,
2013-09-19 19:30:00,69.8,66.7,28.76,SW,225,2.3,0.0,90,0.00,CLR,,0.33,WeatherDisplay:10.37,2013-09-20 00:30:00,
2013-09-19 19:35:00,69.4,66.7,28.76,NW,315,2.3,2.3,91,0.00,CLR,,0.33,WeatherDisplay:10.37,2013-09-20 00:35:00,
2013-09-19 19:40:00,69.6,67.5,28.77,West,270,3.5,3.5,93,0.00,CLR,,0.33,WeatherDisplay:10.37,2013-09-20 00:40:00,
2013-09-19 19:45:00,69.6,67.2,28.77,NW,315,3.5,3.5,92,0.00,CLR,,0.33,WeatherDisplay:10.37,2013-09-20 00:45:00,
2013-09-19 19:50:00,69.6,66.9,28.78,North,0,4.6,4.6,91,0.00,CLR,,0.33,WeatherDisplay:10.37,2013-09-20 00:50:00,
2013-09-19 19:55:00,69.6,66.9,28.77,North,0,3.5,3.5,91,0.00,CLR,,0.33,WeatherDisplay:10.37,2013-09-20 00:55:00,
2013-09-19 20:00:00,68.9,66.8,28.78,NW,315,4.6,4.6,93,0.00,CLR,,0.33,WeatherDisplay:10.37,2013-09-20 01:00:00,
2013-09-19 20:05:00,68.9,66.8,28.78,NW,315,3.5,3.5,93,0.00,CLR,,0.33,WeatherDisplay:10.37,2013-09-20 01:05:00,
2013-09-19 20:10:00,68.5,66.7,28.77,NW,315,3.5,0.0,94,0.00,CLR,,0.33,WeatherDisplay:10.37,2013-09-20 01:10:00,
2013-09-19 20:15:00,68.4,66.9,28.78,West,270,0.0,0.0,95,0.00,CLR,,0.33,WeatherDisplay:10.37,2013-09-20 01:15:00,
2013-09-19 20:20:00,68.4,66.9,28.78,South,180,0.0,0.0,95,0.00,CLR,,0.33,WeatherDisplay:10.37,2013-09-20 01:20:00,
2013-09-19 20:25:00,68.2,66.7,28.79,SW,225,0.0,0.0,95,0.00,CLR,,0.33,WeatherDisplay:10.37,2013-09-20 01:25:00,
2013-09-19 20:30:00,68.0,66.8,28.78,South,180,0.0,0.0,96,0.00,CLR,,0.33,WeatherDisplay:10.37,2013-09-20 01:30:00,
2013-09-19 20:35:00,67.8,66.9,28.78,South,180,0.0,0.0,97,0.00,CLR,,0.33,WeatherDisplay:10.37,2013-09-20 01:35:00,
2013-09-19 20:40:00,67.6,66.8,28.78,NE,45,0.0,0.0,97,0.00,CLR,,0.33,WeatherDisplay:10.37,2013-09-20 01:40:00,
2013-09-19 20:45:00,67.6,66.8,28.78,NE,45,0.0,0.0,97,0.00,CLR,,0.33,WeatherDisplay:10.37,2013-09-20 01:45:00,
2013-09-19 20:50:00,67.3,66.4,28.78,NE,45,0.0,0.0,97,0.00,CLR,,0.33,WeatherDisplay:10.37,2013-09-20 01:50:00,
2013-09-19 20:55:00,67.1,66.2,28.77,NE,45,0.0,0.0,97,0.00,CLR,,0.33,WeatherDisplay:10.37,2013-09-20 01:55:00,
2013-09-19 21:00:00,66.9,66.3,28.77,NE,45,0.0,0.0,98,0.00,CLR,,0.33,WeatherDisplay:10.37,2013-09-20 02:00:00,
2013-09-19 21:05:00,66.7,66.2,28.77,NE,45,0.0,0.0,98,0.00,CLR,,0.33,WeatherDisplay:10.37,2013-09-20 02:05:00,
2013-09-19 21:10:00,66.6,66.0,28.77,South,180,0.0,0.0,98,0.00,CLR,,0.33,WeatherDisplay:10.37,2013-09-20 02:10:00,
2013-09-19 21:15:00,66.6,66.3,28.77,South,180,0.0,0.0,99,0.00,CLR,,0.33,WeatherDisplay:10.37,2013-09-20 02:15:00,
2013-09-19 21:20:00,66.7,66.5,28.77,South,180,0.0,0.0,99,0.00,CLR,,0.33,WeatherDisplay:10.37,2013-09-20 02:20:00,
2013-09-19 21:25:00,66.7,66.5,28.76,South,180,0.0,0.0,99,0.00,CLR,,0.33,WeatherDisplay:10.37,2013-09-20 02:25:00,
2013-09-19 21:30:00,66.7,66.5,28.76,South,180,0.0,0.0,99,0.00,CLR,,0.33,WeatherDisplay:10.37,2013-09-20 02:30:00,
2013-09-19 21:35:00,66.7,66.5,28.76,South,180,0.0,0.0,99,0.00,CLR,,0.33,WeatherDisplay:10.37,2013-09-20 02:35:00,
2013-09-19 21:40:00,67.1,66.8,28.76,North,0,0.0,0.0,99,0.00,CLR,,0.33,WeatherDisplay:10.37,2013-09-20 02:40:00,
2013-09-19 21:45:00,67.1,66.8,28.76,North,0,0.0,0.0,99,0.00,CLR,,0.33,WeatherDisplay:10.37,2013-09-20 02:45:00,
2013-09-19 21:50:00,67.1,66.8,28.76,North,0,0.0,0.0,99,0.00,CLR,,0.33,WeatherDisplay:10.37,2013-09-20 02:50:00,
2013-09-19 21:55:00,66.9,66.6,28.75,NW,315,0.0,0.0,99,0.00,CLR,,0.33,WeatherDisplay:10.37,2013-09-20 02:55:00,
2013-09-19 22:00:00,66.9,66.6,28.75,NW,315,0.0,0.0,99,0.00,CLR,,0.33,WeatherDisplay:10.37,2013-09-20 03:00:00,
2013-09-19 22:05:00,66.9,66.6,28.76,NW,315,0.0,0.0,99,0.00,CLR,,0.33,WeatherDisplay:10.37,2013-09-20 03:05:00,
2013-09-19 22:10:00,66.7,66.5,28.76,SW,225,0.0,0.0,99,0.00,CLR,,0.33,WeatherDisplay:10.37,2013-09-20 03:10:00,
2013-09-19 22:15:00,68.4,68.1,28.76,SE,135,1.1,1.1,99,0.00,CLR,,0.33,WeatherDisplay:10.37,2013-09-20 03:15:00,
2013-09-19 22:20:00,70.0,68.2,28.76,SE,135,1.1,0.0,94,0.00,CLR,,0.33,WeatherDisplay:10.37,2013-09-20 03:20:00,
2013-09-19 22:25:00,70.7,67.9,28.76,NW,315,1.1,0.0,91,0.00,CLR,,0.33,WeatherDisplay:10.37,2013-09-20 03:25:00,
2013-09-19 22:31:00,70.3,66.9,28.77,NW,315,1.1,0.0,89,0.00,CLR,,0.33,WeatherDisplay:10.37,2013-09-20 03:31:00,
2013-09-19 22:36:00,69.8,66.7,28.78,NW,315,1.1,1.1,90,0.00,CLR,,0.33,WeatherDisplay:10.37,2013-09-20 03:36:00,
2013-09-19 22:41:00,69.1,66.0,28.78,NW,315,3.5,0.0,90,0.00,CLR,,0.33,WeatherDisplay:10.37,2013-09-20 03:41:00,
2013-09-19 22:46:00,68.5,65.8,28.78,NE,45,0.0,0.0,91,0.00,CLR,,0.33,WeatherDisplay:10.37,2013-09-20 03:46:00,
2013-09-19 22:51:00,68.2,65.8,28.78,NE,45,0.0,0.0,92,0.00,CLR,,0.33,WeatherDisplay:10.37,2013-09-20 03:51:00,
2013-09-19 22:56:00,68.0,65.9,28.78,NE,45,0.0,0.0,93,0.00,CLR,,0.33,WeatherDisplay:10.37,2013-09-20 03:56:00,
2013-09-19 23:01:00,67.6,65.9,28.77,NE,45,1.1,0.0,94,0.00,CLR,,0.33,WeatherDisplay:10.37,2013-09-20 04:01:00,
2013-09-19 23:06:00,67.6,65.9,28.78,NE,45,0.0,0.0,94,0.00,CLR,,0.33,WeatherDisplay:10.37,2013-09-20 04:06:00,
2013-09-19 23:11:00,68.9,67.4,28.78,NW,315,1.1,0.0,95,0.00,CLR,,0.33,WeatherDisplay:10.37,2013-09-20 04:11:00,
2013-09-19 23:16:00,69.8,67.1,28.78,SE,135,1.1,0.0,91,0.00,CLR,,0.33,WeatherDisplay:10.37,2013-09-20 04:16:00,
2013-09-19 23:21:00,70.5,67.1,28.77,West,270,1.1,0.0,89,0.00,CLR,,0.33,WeatherDisplay:10.37,2013-09-20 04:21:00,
2013-09-19 23:26:00,70.3,66.0,28.77,WNW,292,3.5,3.5,86,0.00,CLR,,0.33,WeatherDisplay:10.37,2013-09-20 04:26:00,
2013-09-19 23:31:00,69.8,65.4,28.78,NW,315,1.1,1.1,86,0.00,CLR,,0.33,WeatherDisplay:10.37,2013-09-20 04:31:00,
2013-09-19 23:36:00,68.9,65.2,28.78,NW,315,2.3,0.0,88,0.00,CLR,,0.33,WeatherDisplay:10.37,2013-09-20 04:36:00,
2013-09-19 23:41:00,68.4,65.3,28.77,NW,315,0.0,0.0,90,0.00,CLR,,0.33,WeatherDisplay:10.37,2013-09-20 04:41:00,
2013-09-19 23:46:00,68.0,65.3,28.78,NW,315,2.3,0.0,91,0.00,CLR,,0.33,WeatherDisplay:10.37,2013-09-20 04:46:00,
2013-09-19 23:51:00,67.8,65.4,28.77,NW,315,0.0,0.0,92,0.00,CLR,,0.33,WeatherDisplay:10.37,2013-09-20 04:51:00,
2013-09-19 23:56:00,67.5,65.4,28.77,NE,45,2.3,0.0,93,0.00,CLR,,0.33,WeatherDisplay:10.37,2013-09-20 04:56:00,